Berutti, Argentina
Current Conditions -  °F | °C
As of 1:00 PM on Friday 24 Oct 2014 (Local Time) from SAOC Reporting Station
Clear Clear  
Wind Chill: 90°   Ceiling: Unl
Heat Index: 90°   Visibility: 6mi
Dew Point: 61°   Wind: 15mph
Humidity: 38%   Direction: 20°NNE
Pressure: 29.94"   Gusts: NA
Location:  35.86°S, 62.51°W
Report Text: SAOC 241600Z 02013KT 9999 NSC 32/16 Q1014
Loading
Personal Weather Stations






























Interactive Weather Map
Tropical Storm Tracking
New forecast layout! Learn more

10-Day Weather Forecast

Advertisements
Track Severe Weather on mobile